createdAt,value
2023-01-25T00:00:11.418Z,23.35
2023-01-25T00:00:42.978Z,22.85
2023-01-25T00:01:14.474Z,23.20
2023-01-25T00:01:45.988Z,23.33
2023-01-25T00:02:17.606Z,22.98
2023-01-25T00:02:49.209Z,23.92
2023-01-25T00:03:20.863Z,26.80
2023-01-25T00:03:52.391Z,22.83
2023-01-25T00:04:24.294Z,20.98
2023-01-25T00:04:55.864Z,23.98
2023-01-25T00:05:27.429Z,24.65
2023-01-25T00:06:01.640Z,24.92
2023-01-25T00:06:33.238Z,23.30
2023-01-25T00:07:04.876Z,23.48
2023-01-25T00:07:55.608Z,24.95
2023-01-25T00:08:27.305Z,23.15
2023-01-25T00:08:58.832Z,21.48
2023-01-25T00:09:30.290Z,21.77
2023-01-25T00:10:01.892Z,23.35
2023-01-25T00:10:33.463Z,25.20
2023-01-25T00:11:05.081Z,24.88
2023-01-25T00:11:37.622Z,23.73
2023-01-25T00:12:09.050Z,25.30
2023-01-25T00:12:40.574Z,23.35
2023-01-25T00:13:12.085Z,24.83
2023-01-25T00:13:44.147Z,27.25
2023-01-25T00:14:16.493Z,23.95
2023-01-25T00:14:48.023Z,27.73
2023-01-25T00:15:19.584Z,29.70
2023-01-25T00:15:51.079Z,31.08
2023-01-25T00:16:23.817Z,27.85
2023-01-25T00:16:55.354Z,27.15
2023-01-25T00:17:26.915Z,25.90
2023-01-25T00:17:58.420Z,24.02
2023-01-25T00:18:30.857Z,24.75
2023-01-25T00:19:02.428Z,27.98
2023-01-25T00:19:33.923Z,26.70
2023-01-25T00:20:06.014Z,27.40
2023-01-25T00:20:37.546Z,22.17
2023-01-25T00:21:17.146Z,24.50
2023-01-25T00:21:48.694Z,23.02
2023-01-25T00:22:20.185Z,25.77
2023-01-25T00:22:51.675Z,22.15
2023-01-25T00:23:23.179Z,23.65
2023-01-25T00:23:55.208Z,22.10
2023-01-25T00:24:26.843Z,24.48
2023-01-25T00:24:58.403Z,23.77
2023-01-25T00:25:29.907Z,22.87
2023-01-25T00:26:01.404Z,23.40
2023-01-25T00:26:34.617Z,22.30
2023-01-25T00:27:06.142Z,22.70
2023-01-25T00:27:37.692Z,23.35
2023-01-25T00:28:09.181Z,21.35
2023-01-25T00:28:40.720Z,22.33
2023-01-25T00:29:14.210Z,21.35
2023-01-25T00:29:45.790Z,23.45
2023-01-25T00:30:17.395Z,23.85
2023-01-25T00:30:48.856Z,23.20
2023-01-25T00:31:45.014Z,27.13
2023-01-25T00:32:16.600Z,22.23
2023-01-25T00:32:57.543Z,19.55
2023-01-25T00:33:56.804Z,22.88
2023-01-25T00:34:30.944Z,20.55
2023-01-25T00:35:02.408Z,23.42
2023-01-25T00:35:34.628Z,23.02
2023-01-25T00:36:39.709Z,23.02
2023-01-25T00:37:37.409Z,23.05
2023-01-25T00:38:27.539Z,21.83
2023-01-25T00:38:59.110Z,21.77
2023-01-25T00:39:30.669Z,23.25
2023-01-25T00:40:02.149Z,21.90
2023-01-25T00:40:33.653Z,22.08
2023-01-25T00:41:05.218Z,22.23
2023-01-25T00:41:36.706Z,23.67
2023-01-25T00:42:11.697Z,24.80
2023-01-25T00:42:43.284Z,23.40
2023-01-25T00:43:15.173Z,23.60
2023-01-25T00:43:46.720Z,20.83
2023-01-25T00:44:18.250Z,23.52
2023-01-25T00:44:50.440Z,26.65
2023-01-25T00:45:21.985Z,23.08
2023-01-25T00:46:00.544Z,24.08
2023-01-25T00:46:32.207Z,23.63
2023-01-25T00:47:05.078Z,24.05
2023-01-25T00:47:36.774Z,23.65
2023-01-25T00:48:09.193Z,24.00
2023-01-25T00:48:40.693Z,21.88
2023-01-25T00:49:23.283Z,23.00
2023-01-25T00:49:54.824Z,23.30
2023-01-25T00:50:26.373Z,24.95
2023-01-25T00:51:03.817Z,22.65
2023-01-25T00:51:35.342Z,23.67
2023-01-25T00:52:07.783Z,23.13
2023-01-25T00:52:39.807Z,22.13
2023-01-25T00:53:11.261Z,24.20
2023-01-25T00:53:42.746Z,23.65
2023-01-25T00:54:14.432Z,21.27
2023-01-25T00:54:46.001Z,24.63
2023-01-25T00:55:17.467Z,23.55
2023-01-25T00:56:13.431Z,24.25
2023-01-25T00:56:45.611Z,21.52
2023-01-25T00:57:17.115Z,23.20
2023-01-25T00:57:48.655Z,25.58
2023-01-25T00:58:20.247Z,23.55
2023-01-25T00:58:51.801Z,24.15
2023-01-25T00:59:24.617Z,23.83
2023-01-25T00:59:56.148Z,23.15
2023-01-25T01:00:27.633Z,23.93
2023-01-25T01:00:59.268Z,23.55
2023-01-25T01:01:30.741Z,24.25
2023-01-25T01:02:03.094Z,23.15
2023-01-25T01:02:34.644Z,21.75
2023-01-25T01:03:06.146Z,24.08
2023-01-25T01:03:37.627Z,22.83
2023-01-25T01:04:09.470Z,23.38
2023-01-25T01:04:41.184Z,21.85
2023-01-25T01:05:13.015Z,24.80
2023-01-25T01:05:44.700Z,24.47
2023-01-25T01:06:16.168Z,23.50
2023-01-25T01:06:47.694Z,20.88
2023-01-25T01:07:19.220Z,23.33
2023-01-25T01:07:50.955Z,21.50
2023-01-25T01:08:22.462Z,24.35
2023-01-25T01:08:53.935Z,23.00
2023-01-25T01:09:25.634Z,22.92
2023-01-25T01:09:57.345Z,21.42
2023-01-25T01:10:28.978Z,22.38
2023-01-25T01:11:01.728Z,22.60
2023-01-25T01:11:33.266Z,27.73
2023-01-25T01:12:05.111Z,23.55
2023-01-25T01:12:36.763Z,21.40
2023-01-25T01:13:08.388Z,24.98
2023-01-25T01:13:40.616Z,23.25
2023-01-25T01:14:13.639Z,24.27
2023-01-25T01:14:45.378Z,23.08
2023-01-25T01:15:16.993Z,25.63
2023-01-25T01:15:48.529Z,22.65
2023-01-25T01:16:20.110Z,22.43
2023-01-25T01:16:51.895Z,24.48
2023-01-25T01:17:23.496Z,23.52
2023-01-25T01:17:55.598Z,23.25
2023-01-25T01:18:27.127Z,23.10
2023-01-25T01:18:58.636Z,24.13
2023-01-25T01:19:30.819Z,22.83
2023-01-25T01:20:02.320Z,23.40
2023-01-25T01:20:33.811Z,25.58
2023-01-25T01:21:06.480Z,26.13
2023-01-25T01:21:38.356Z,22.90
2023-01-25T01:22:11.062Z,23.90
2023-01-25T01:22:42.673Z,23.38
2023-01-25T01:23:14.170Z,25.27
2023-01-25T01:23:45.742Z,24.90
2023-01-25T01:24:18.346Z,27.15
2023-01-25T01:24:50.005Z,23.02
2023-01-25T01:25:21.730Z,23.95
2023-01-25T01:25:53.386Z,23.65
2023-01-25T01:26:24.990Z,22.33
2023-01-25T01:26:58.795Z,23.33
2023-01-25T01:27:30.331Z,22.58
2023-01-25T01:28:04.622Z,22.90
2023-01-25T01:28:39.458Z,24.33
2023-01-25T01:29:13.550Z,22.15
2023-01-25T01:29:45.135Z,25.58
2023-01-25T01:30:17.014Z,23.58
2023-01-25T01:30:48.492Z,23.25
2023-01-25T01:31:22.626Z,25.23
2023-01-25T01:31:54.537Z,25.63
2023-01-25T01:32:26.124Z,22.70
2023-01-25T01:32:57.783Z,21.40
2023-01-25T01:33:38.479Z,21.23
2023-01-25T01:34:14.199Z,23.52
2023-01-25T01:34:45.718Z,25.83
2023-01-25T01:35:17.293Z,24.75
2023-01-25T01:35:48.844Z,22.23
2023-01-25T01:36:40.213Z,21.98
2023-01-25T01:37:12.348Z,23.40
2023-01-25T01:37:43.824Z,25.50
2023-01-25T01:38:15.336Z,22.57
2023-01-25T01:38:47.022Z,21.95
2023-01-25T01:39:18.710Z,21.25
2023-01-25T01:39:52.121Z,25.13
2023-01-25T01:40:25.385Z,25.33
2023-01-25T01:40:56.933Z,21.83
2023-01-25T01:41:28.530Z,25.52
2023-01-25T01:42:00.151Z,25.17
2023-01-25T01:42:31.657Z,23.50
2023-01-25T01:43:16.191Z,23.90
2023-01-25T01:43:48.457Z,24.30
2023-01-25T01:44:24.111Z,24.40
2023-01-25T01:44:56.026Z,25.42
2023-01-25T01:45:50.274Z,25.08
2023-01-25T01:46:38.252Z,24.67
2023-01-25T01:47:15.794Z,23.30
2023-01-25T01:47:48.714Z,22.33
2023-01-25T01:48:38.247Z,24.05
2023-01-25T01:49:26.421Z,24.23
2023-01-25T01:50:02.321Z,23.80
2023-01-25T01:50:33.811Z,22.67
2023-01-25T01:51:31.189Z,22.83
2023-01-25T01:52:13.073Z,21.27
2023-01-25T01:52:44.480Z,23.10
2023-01-25T01:53:15.988Z,24.63
2023-01-25T01:54:01.950Z,23.48
2023-01-25T01:54:41.650Z,27.15
2023-01-25T01:55:18.227Z,22.83
2023-01-25T01:55:50.395Z,22.83
2023-01-25T01:56:30.333Z,24.77
2023-01-25T01:57:11.765Z,23.87
2023-01-25T01:57:49.078Z,26.13
2023-01-25T01:58:20.853Z,22.00
2023-01-25T01:58:54.141Z,23.77
2023-01-25T01:59:31.443Z,24.40
2023-01-25T02:00:11.910Z,22.45
2023-01-25T02:00:43.484Z,25.23
2023-01-25T02:01:15.994Z,23.92
2023-01-25T02:01:47.656Z,23.55
2023-01-25T02:02:19.669Z,22.35
2023-01-25T02:02:51.643Z,25.27
2023-01-25T02:03:24.298Z,25.08
2023-01-25T02:03:56.150Z,24.15
2023-01-25T02:04:28.419Z,25.20
2023-01-25T02:05:04.432Z,26.13
2023-01-25T02:05:44.825Z,23.15
2023-01-25T02:06:23.560Z,23.50
2023-01-25T02:08:03.243Z,23.60
2023-01-25T02:08:36.739Z,25.23
2023-01-25T02:09:08.365Z,23.60
2023-01-25T02:09:40.229Z,25.23
2023-01-25T02:10:13.105Z,24.73
2023-01-25T02:10:45.961Z,23.95
2023-01-25T02:11:17.761Z,24.40
2023-01-25T02:11:51.450Z,26.13
2023-01-25T02:12:24.020Z,25.00
2023-01-25T02:12:57.463Z,24.17
2023-01-25T02:13:29.760Z,24.10
2023-01-25T02:14:01.998Z,25.35
2023-01-25T02:14:34.766Z,23.87
2023-01-25T02:15:07.376Z,23.55
2023-01-25T02:15:44.621Z,25.30
2023-01-25T02:16:27.505Z,25.77
2023-01-25T02:16:59.471Z,24.10
2023-01-25T02:17:35.553Z,26.17
2023-01-25T02:18:09.353Z,23.35
2023-01-25T02:18:40.954Z,24.13
2023-01-25T02:19:22.670Z,25.23
2023-01-25T02:20:02.102Z,26.35
2023-01-25T02:20:38.453Z,25.10
2023-01-25T02:21:10.500Z,26.55
2023-01-25T02:21:46.407Z,25.40
2023-01-25T02:22:23.678Z,24.17
2023-01-25T02:23:12.565Z,23.92
2023-01-25T02:23:52.949Z,24.30
2023-01-25T02:24:29.988Z,25.50
2023-01-25T02:25:12.187Z,24.10
2023-01-25T02:25:43.924Z,24.95
2023-01-25T02:26:19.663Z,24.83
2023-01-25T02:26:51.232Z,24.70
2023-01-25T02:27:22.967Z,25.73
2023-01-25T02:28:23.088Z,26.02
2023-01-25T02:29:05.879Z,24.50
2023-01-25T02:29:38.132Z,22.88
2023-01-25T02:30:10.195Z,24.60
2023-01-25T02:30:43.607Z,25.85
2023-01-25T02:31:15.228Z,25.05
2023-01-25T02:31:47.519Z,26.02
2023-01-25T02:32:19.049Z,25.50
2023-01-25T02:32:50.572Z,26.40
2023-01-25T02:33:26.549Z,27.77
2023-01-25T02:33:59.491Z,27.42
2023-01-25T02:34:31.060Z,29.83
2023-01-25T02:35:02.547Z,24.67
2023-01-25T02:35:42.721Z,25.05
2023-01-25T02:36:28.468Z,27.77
2023-01-25T02:36:59.978Z,27.25
2023-01-25T02:37:31.749Z,26.48
2023-01-25T02:38:04.874Z,26.67
2023-01-25T02:38:43.298Z,28.00
2023-01-25T02:39:20.369Z,27.40
2023-01-25T02:39:52.644Z,29.52
2023-01-25T02:40:24.087Z,26.15
2023-01-25T02:41:02.342Z,28.75
2023-01-25T02:41:36.761Z,29.20
2023-01-25T02:42:08.295Z,30.23
2023-01-25T02:42:42.647Z,27.48
2023-01-25T02:43:15.377Z,29.70
2023-01-25T02:43:46.912Z,29.25
2023-01-25T02:44:33.373Z,31.37
2023-01-25T02:45:10.951Z,30.02
2023-01-25T02:45:46.495Z,29.90
2023-01-25T02:46:31.746Z,29.55
2023-01-25T02:47:03.392Z,28.15
2023-01-25T02:47:34.943Z,30.73
2023-01-25T02:48:06.653Z,28.20
2023-01-25T02:48:38.129Z,28.08
2023-01-25T02:49:10.618Z,25.88
2023-01-25T02:49:42.127Z,28.02
2023-01-25T02:50:15.165Z,30.97
2023-01-25T02:50:47.431Z,27.25
2023-01-25T02:51:18.870Z,28.05
2023-01-25T02:51:57.520Z,29.33
2023-01-25T02:52:29.006Z,28.80
2023-01-25T02:53:00.456Z,27.60
2023-01-25T02:53:32.047Z,26.50
2023-01-25T02:54:05.647Z,27.77
2023-01-25T02:54:37.222Z,28.60
2023-01-25T02:55:09.555Z,30.30
2023-01-25T02:55:41.246Z,33.77
2023-01-25T02:56:12.787Z,33.35
2023-01-25T02:56:44.572Z,33.55
2023-01-25T02:57:16.125Z,30.13
2023-01-25T02:57:47.605Z,31.40
2023-01-25T02:58:19.117Z,31.85
2023-01-25T02:58:50.734Z,31.58
2023-01-25T02:59:22.808Z,31.10
2023-01-25T02:59:54.293Z,30.40
2023-01-25T03:00:25.819Z,31.17
2023-01-25T03:00:58.790Z,30.50
2023-01-25T03:01:30.344Z,30.98
2023-01-25T03:02:02.485Z,31.58
2023-01-25T03:02:34.144Z,30.60
2023-01-25T03:03:05.666Z,31.15
2023-01-25T03:03:37.235Z,31.55
2023-01-25T03:04:09.438Z,31.17
2023-01-25T03:04:40.897Z,29.80
2023-01-25T03:05:12.354Z,28.88
2023-01-25T03:05:44.638Z,30.63
2023-01-25T03:06:16.438Z,26.80
2023-01-25T03:06:48.032Z,27.60
2023-01-25T03:07:19.567Z,29.38
2023-01-25T03:07:51.988Z,28.88
2023-01-25T03:08:23.489Z,30.38
2023-01-25T03:08:55.060Z,31.30
2023-01-25T03:09:26.633Z,30.65
2023-01-25T03:09:58.148Z,29.25
2023-01-25T03:10:29.848Z,30.13
2023-01-25T03:11:03.512Z,29.50
2023-01-25T03:11:35.943Z,31.10
2023-01-25T03:12:07.531Z,31.80
2023-01-25T03:12:39.100Z,34.20
2023-01-25T03:13:11.288Z,32.92
2023-01-25T03:13:42.737Z,31.77
2023-01-25T03:14:14.300Z,34.92
2023-01-25T03:14:45.760Z,36.10
2023-01-25T03:15:17.415Z,35.47
2023-01-25T03:15:49.081Z,40.97
2023-01-25T03:16:20.838Z,33.38
2023-01-25T03:16:52.595Z,34.37
2023-01-25T03:17:25.007Z,32.80
2023-01-25T03:17:57.237Z,27.95
2023-01-25T03:18:28.967Z,29.13
2023-01-25T03:19:00.532Z,30.88
2023-01-25T03:19:32.114Z,29.20
2023-01-25T03:20:03.798Z,29.17
2023-01-25T03:20:35.366Z,30.48
2023-01-25T03:21:11.250Z,30.52
2023-01-25T03:21:42.834Z,29.98
2023-01-25T03:22:14.301Z,33.07
2023-01-25T03:22:45.769Z,31.92
2023-01-25T03:23:17.306Z,31.75
2023-01-25T03:23:54.896Z,31.48
2023-01-25T03:24:26.394Z,27.27
2023-01-25T03:24:57.993Z,31.85
2023-01-25T03:25:29.504Z,28.00
2023-01-25T03:26:21.585Z,28.75
2023-01-25T03:27:11.096Z,27.58
2023-01-25T03:27:42.623Z,28.52
2023-01-25T03:28:14.156Z,29.03
2023-01-25T03:28:46.079Z,28.30
2023-01-25T03:31:22.932Z,26.48
2023-01-25T03:31:54.543Z,23.88
2023-01-25T03:32:26.090Z,27.35
2023-01-25T03:32:57.549Z,25.70
2023-01-25T03:33:29.219Z,28.13
2023-01-25T03:34:00.732Z,28.83
2023-01-25T03:34:32.158Z,28.05
2023-01-25T03:35:04.371Z,27.80
2023-01-25T03:35:35.863Z,29.30
2023-01-25T03:36:07.957Z,27.77
2023-01-25T03:36:39.580Z,31.77
2023-01-25T03:37:11.082Z,30.75
2023-01-25T03:37:42.578Z,29.45
2023-01-25T03:38:14.052Z,31.20
2023-01-25T03:38:45.519Z,30.77
2023-01-25T03:39:17.238Z,30.70
2023-01-25T03:39:48.761Z,31.02
2023-01-25T03:40:20.382Z,31.60
2023-01-25T03:40:52.182Z,31.45
2023-01-25T03:41:23.629Z,29.10
2023-01-25T03:41:55.285Z,32.20
2023-01-25T03:42:26.861Z,31.80
2023-01-25T03:42:58.341Z,27.77
2023-01-25T03:43:30.554Z,31.08
2023-01-25T03:44:02.073Z,31.08
2023-01-25T03:44:33.594Z,31.00
2023-01-25T03:45:05.751Z,28.65
2023-01-25T03:45:37.199Z,28.50
2023-01-25T03:46:08.862Z,31.15
2023-01-25T03:46:41.891Z,31.15
2023-01-25T03:47:13.546Z,29.30
2023-01-25T03:47:45.011Z,32.38
2023-01-25T03:48:16.536Z,30.75
2023-01-25T03:48:48.942Z,30.50
2023-01-25T03:49:20.422Z,30.40
2023-01-25T03:49:51.951Z,29.63
2023-01-25T03:50:23.397Z,29.95
2023-01-25T03:50:59.146Z,30.13
2023-01-25T03:51:30.652Z,30.10
2023-01-25T03:52:02.829Z,37.63
2023-01-25T03:52:38.531Z,28.08
2023-01-25T03:53:20.517Z,32.95
2023-01-25T03:53:52.079Z,32.42
2023-01-25T03:54:23.869Z,29.90
2023-01-25T03:54:55.294Z,30.48
2023-01-25T03:55:27.106Z,34.58
2023-01-25T03:56:01.991Z,30.40
2023-01-25T03:56:33.598Z,33.57
2023-01-25T03:57:05.233Z,33.28
2023-01-25T03:57:36.789Z,32.95
2023-01-25T03:58:08.338Z,32.33
2023-01-25T03:58:40.340Z,34.33
2023-01-25T03:59:12.564Z,31.27
2023-01-25T03:59:44.174Z,32.35
2023-01-25T04:00:16.311Z,32.55
2023-01-25T04:00:47.798Z,30.95
2023-01-25T04:01:19.670Z,32.22
2023-01-25T04:01:51.667Z,32.83
2023-01-25T04:02:23.352Z,32.17
2023-01-25T04:02:54.879Z,33.70
2023-01-25T04:03:26.912Z,33.97
2023-01-25T04:03:58.702Z,34.90
2023-01-25T04:04:30.319Z,34.22
2023-01-25T04:05:02.092Z,32.83
2023-01-25T04:05:33.519Z,33.63
2023-01-25T04:06:05.487Z,32.20
2023-01-25T04:06:36.977Z,30.80
2023-01-25T04:07:08.429Z,34.63
2023-01-25T04:07:40.102Z,35.35
2023-01-25T04:08:11.689Z,33.58
2023-01-25T04:08:43.144Z,32.03
2023-01-25T04:09:14.618Z,34.30
2023-01-25T04:09:46.348Z,34.60
2023-01-25T04:10:18.019Z,32.33
2023-01-25T04:10:57.401Z,36.42
2023-01-25T04:11:28.907Z,35.40
2023-01-25T04:12:00.406Z,33.72
2023-01-25T04:12:32.607Z,34.83
2023-01-25T04:13:04.085Z,38.38
2023-01-25T04:13:36.745Z,31.33
2023-01-25T04:14:08.391Z,30.70
2023-01-25T04:14:44.613Z,33.78
2023-01-25T04:15:16.494Z,30.98
2023-01-25T04:15:48.612Z,32.45
2023-01-25T04:16:20.208Z,33.00
2023-01-25T04:16:51.806Z,31.70
2023-01-25T04:17:23.458Z,32.10
2023-01-25T04:17:56.253Z,30.90
2023-01-25T04:18:28.901Z,31.70
2023-01-25T04:19:00.404Z,30.98
2023-01-25T04:19:31.860Z,28.95
2023-01-25T04:20:03.633Z,32.75
2023-01-25T04:20:35.219Z,34.85
2023-01-25T04:21:07.118Z,29.27
2023-01-25T04:21:38.579Z,34.67
2023-01-25T04:22:10.029Z,35.88
2023-01-25T04:22:41.451Z,36.17
2023-01-25T04:23:13.103Z,34.67
2023-01-25T04:23:44.592Z,32.38
2023-01-25T04:24:16.154Z,33.22
2023-01-25T04:24:47.631Z,36.17
2023-01-25T04:25:19.515Z,35.42
2023-01-25T04:26:01.736Z,35.33
2023-01-25T04:26:33.263Z,35.35
2023-01-25T04:27:05.340Z,32.92
2023-01-25T04:27:36.920Z,34.08
2023-01-25T04:28:08.471Z,34.65
2023-01-25T04:28:40.031Z,33.00
2023-01-25T04:29:12.886Z,31.83
2023-01-25T04:29:44.339Z,35.03
2023-01-25T04:30:16.419Z,33.72
2023-01-25T04:30:48.113Z,34.95
2023-01-25T04:31:38.224Z,35.45
2023-01-25T04:32:27.987Z,31.70
2023-01-25T04:33:04.559Z,32.60
2023-01-25T04:33:36.072Z,32.13
2023-01-25T04:34:07.493Z,34.17
2023-01-25T04:34:38.998Z,35.47
2023-01-25T04:35:10.916Z,33.80
2023-01-25T04:35:43.666Z,33.03
2023-01-25T04:36:15.191Z,30.92
2023-01-25T04:36:46.913Z,32.33
2023-01-25T04:37:18.510Z,32.25
2023-01-25T04:37:57.908Z,33.75
2023-01-25T04:38:29.563Z,33.40
2023-01-25T04:39:01.366Z,33.58
2023-01-25T04:39:32.902Z,37.10
2023-01-25T04:40:05.327Z,34.37
2023-01-25T04:40:37.642Z,35.58
2023-01-25T04:41:10.029Z,32.80
2023-01-25T04:41:43.726Z,33.42
2023-01-25T04:42:16.142Z,35.08
2023-01-25T04:42:47.630Z,36.78
2023-01-25T04:43:20.527Z,35.72
2023-01-25T04:43:52.052Z,35.40
2023-01-25T04:44:23.590Z,34.85
2023-01-25T04:44:55.075Z,35.95
2023-01-25T04:45:26.889Z,36.80
2023-01-25T04:46:01.613Z,36.75
2023-01-25T04:46:33.130Z,39.72
2023-01-25T04:47:04.664Z,34.13
2023-01-25T04:47:36.175Z,34.88
2023-01-25T04:48:12.690Z,33.30
2023-01-25T04:48:44.160Z,33.83
2023-01-25T04:49:15.688Z,34.35
2023-01-25T04:49:47.218Z,38.55
2023-01-25T04:50:18.854Z,35.78
2023-01-25T04:50:50.448Z,37.47
2023-01-25T04:51:22.012Z,37.60
2023-01-25T04:51:53.483Z,34.90
2023-01-25T04:52:24.975Z,39.17
2023-01-25T04:52:56.524Z,38.72
2023-01-25T04:53:27.994Z,37.10
2023-01-25T04:53:59.573Z,38.95
2023-01-25T04:54:31.080Z,36.17
2023-01-25T04:55:02.612Z,37.40
2023-01-25T04:55:34.559Z,39.35
2023-01-25T04:56:06.630Z,36.03
2023-01-25T04:56:38.118Z,37.78
2023-01-25T04:57:09.861Z,38.78
2023-01-25T04:57:41.419Z,36.00
2023-01-25T04:58:12.989Z,36.90
2023-01-25T04:58:44.584Z,38.75
2023-01-25T04:59:16.150Z,41.80
2023-01-25T04:59:47.614Z,40.40
2023-01-25T05:00:19.763Z,37.33
2023-01-25T05:00:51.349Z,35.30
2023-01-25T05:01:23.024Z,38.00
2023-01-25T05:01:54.595Z,35.55
2023-01-25T05:02:27.162Z,36.55
2023-01-25T05:02:58.667Z,37.10
2023-01-25T05:03:30.479Z,38.42
2023-01-25T05:04:02.048Z,40.05
2023-01-25T05:04:33.521Z,38.20
2023-01-25T05:05:05.773Z,38.63
2023-01-25T05:05:37.311Z,37.25
2023-01-25T05:06:08.835Z,35.03
2023-01-25T05:06:40.370Z,37.73
2023-01-25T05:07:11.876Z,37.22
2023-01-25T05:07:43.386Z,42.13
2023-01-25T05:08:14.886Z,38.55
2023-01-25T05:08:46.483Z,34.92
2023-01-25T05:09:18.133Z,36.30
2023-01-25T05:09:49.605Z,37.65
2023-01-25T05:10:21.279Z,37.70
2023-01-25T05:10:52.965Z,36.13
2023-01-25T05:11:24.427Z,38.95
2023-01-25T05:11:55.898Z,35.77
2023-01-25T05:12:27.705Z,36.70
2023-01-25T05:12:59.283Z,35.92
2023-01-25T05:13:30.757Z,36.50
2023-01-25T05:14:02.324Z,37.88
2023-01-25T05:14:33.808Z,37.92
2023-01-25T05:15:06.438Z,36.15
2023-01-25T05:15:38.031Z,35.50
2023-01-25T05:16:09.903Z,36.88
2023-01-25T05:16:41.512Z,39.00
2023-01-25T05:17:13.258Z,40.70
2023-01-25T05:17:44.812Z,37.58
2023-01-25T05:18:16.304Z,41.90
2023-01-25T05:18:49.306Z,38.55
2023-01-25T05:19:21.090Z,36.67
2023-01-25T05:20:10.798Z,36.65
2023-01-25T05:20:42.217Z,36.03
2023-01-25T05:21:36.642Z,38.20
2023-01-25T05:22:14.327Z,34.63
2023-01-25T05:22:45.762Z,37.38
2023-01-25T05:23:17.214Z,34.87
2023-01-25T05:23:48.666Z,35.13
2023-01-25T05:24:20.220Z,39.08
2023-01-25T05:24:51.863Z,34.58
2023-01-25T05:25:41.644Z,35.15
2023-01-25T05:26:31.712Z,36.65
2023-01-25T05:27:03.876Z,36.38
2023-01-25T05:27:35.424Z,36.47
2023-01-25T05:28:07.620Z,36.33
2023-01-25T05:28:39.147Z,34.55
2023-01-25T05:29:10.654Z,38.60
2023-01-25T05:29:43.885Z,35.70
2023-01-25T05:30:15.616Z,38.35
2023-01-25T05:30:47.121Z,43.63
2023-01-25T05:31:18.737Z,37.03
2023-01-25T05:31:50.378Z,36.85
2023-01-25T05:32:23.318Z,38.35
2023-01-25T05:32:54.779Z,40.30
2023-01-25T05:33:26.260Z,38.05
2023-01-25T05:33:57.853Z,39.83
2023-01-25T05:34:30.395Z,41.40
2023-01-25T05:35:01.967Z,41.00
2023-01-25T05:35:33.495Z,38.05
2023-01-25T05:36:05.242Z,39.22
2023-01-25T05:36:36.732Z,44.40
2023-01-25T05:37:10.749Z,42.53
2023-01-25T05:37:42.241Z,36.47
2023-01-25T05:38:13.678Z,38.72
2023-01-25T05:38:45.149Z,43.05
2023-01-25T05:39:16.658Z,42.40
2023-01-25T05:39:48.179Z,38.20
2023-01-25T05:40:19.644Z,39.38
2023-01-25T05:40:51.142Z,45.13
2023-01-25T05:41:22.608Z,40.47
2023-01-25T05:41:54.124Z,39.40
2023-01-25T05:42:25.639Z,40.45
2023-01-25T05:42:58.634Z,41.63
2023-01-25T05:43:30.117Z,37.95
2023-01-25T05:44:01.711Z,41.20
2023-01-25T05:44:34.204Z,40.30
2023-01-25T05:45:06.377Z,39.50
2023-01-25T05:45:37.837Z,42.35
2023-01-25T05:46:09.356Z,42.13
2023-01-25T05:46:41.252Z,42.00
2023-01-25T05:47:14.664Z,41.67
2023-01-25T05:47:46.142Z,37.83
2023-01-25T05:48:17.754Z,42.58
2023-01-25T05:48:49.276Z,39.00
2023-01-25T05:49:20.795Z,38.42
2023-01-25T05:49:52.267Z,38.55
2023-01-25T05:50:24.978Z,39.70
2023-01-25T05:50:59.188Z,40.63
2023-01-25T05:51:30.839Z,42.90
2023-01-25T05:52:02.322Z,40.45
2023-01-25T05:52:33.866Z,38.20
2023-01-25T05:53:05.409Z,40.92
2023-01-25T05:53:36.979Z,42.28
2023-01-25T05:54:12.815Z,37.80
2023-01-25T05:54:44.561Z,38.97
2023-01-25T05:55:16.501Z,44.30
2023-01-25T05:55:48.030Z,36.80
2023-01-25T05:56:19.512Z,37.80
2023-01-25T05:56:51.092Z,40.53
2023-01-25T05:57:22.629Z,39.63
2023-01-25T05:57:57.929Z,39.67
2023-01-25T05:58:29.461Z,38.60
2023-01-25T05:59:02.050Z,36.50
2023-01-25T05:59:33.719Z,40.67
2023-01-25T06:00:06.431Z,39.25
2023-01-25T06:00:37.969Z,40.80
2023-01-25T06:01:09.425Z,41.23
2023-01-25T06:01:59.563Z,38.47
2023-01-25T06:02:32.434Z,39.58
2023-01-25T06:03:04.110Z,39.35
2023-01-25T06:03:35.829Z,39.30
2023-01-25T06:04:07.447Z,38.33
2023-01-25T06:04:38.922Z,39.65
2023-01-25T06:05:11.050Z,42.30
2023-01-25T06:05:42.725Z,41.90
2023-01-25T06:06:14.587Z,39.47
2023-01-25T06:06:46.194Z,37.70
2023-01-25T06:07:17.819Z,37.15
2023-01-25T06:07:49.307Z,40.55
2023-01-25T06:08:20.857Z,41.60
2023-01-25T06:08:52.540Z,39.15
2023-01-25T06:09:24.229Z,43.45
2023-01-25T06:09:55.777Z,40.20
2023-01-25T06:10:27.242Z,42.33
2023-01-25T06:10:58.925Z,42.38
2023-01-25T06:11:30.407Z,40.42
2023-01-25T06:12:03.798Z,41.03
2023-01-25T06:12:36.963Z,38.70
2023-01-25T06:13:08.435Z,40.90
2023-01-25T06:13:39.922Z,41.88
2023-01-25T06:14:11.888Z,40.72
2023-01-25T06:14:43.427Z,39.60
2023-01-25T06:15:15.044Z,42.13
2023-01-25T06:16:45.789Z,38.90
2023-01-25T06:17:17.319Z,38.10
2023-01-25T06:17:48.887Z,39.80
2023-01-25T06:18:20.579Z,40.03
2023-01-25T06:18:52.132Z,40.20
2023-01-25T06:19:23.632Z,39.28
2023-01-25T06:19:55.180Z,38.53
2023-01-25T06:20:26.658Z,37.60
2023-01-25T06:20:59.230Z,39.85
2023-01-25T06:21:30.895Z,41.22
2023-01-25T06:22:02.411Z,40.92
2023-01-25T06:22:33.951Z,39.80
2023-01-25T06:23:54.495Z,40.60
2023-01-25T06:24:26.004Z,36.60
2023-01-25T06:24:57.481Z,41.40
2023-01-25T06:25:28.996Z,40.17
2023-01-25T06:26:06.252Z,40.40
2023-01-25T06:26:37.758Z,42.58
2023-01-25T06:27:09.391Z,40.65
2023-01-25T06:27:40.952Z,41.83
2023-01-25T06:28:12.558Z,40.05
2023-01-25T06:28:44.406Z,40.57
2023-01-25T06:29:15.990Z,45.60
2023-01-25T06:29:47.508Z,37.22
2023-01-25T06:30:19.153Z,39.47
2023-01-25T06:30:50.880Z,40.13
2023-01-25T06:31:22.533Z,41.35
2023-01-25T06:31:55.703Z,40.45
2023-01-25T06:32:32.120Z,41.78
2023-01-25T06:33:03.812Z,42.15
2023-01-25T06:33:35.800Z,40.83
2023-01-25T06:34:08.571Z,39.90
2023-01-25T06:34:40.216Z,42.00
2023-01-25T06:35:11.737Z,39.72
2023-01-25T06:35:43.497Z,39.30
2023-01-25T06:36:17.243Z,40.17
2023-01-25T06:36:48.799Z,36.75
2023-01-25T06:37:22.899Z,38.85
2023-01-25T06:37:58.170Z,41.42
2023-01-25T06:38:29.723Z,41.30
2023-01-25T06:39:01.271Z,41.95
2023-01-25T06:39:32.802Z,40.40
2023-01-25T06:40:05.133Z,39.47
2023-01-25T06:40:36.611Z,39.35
2023-01-25T06:41:12.131Z,40.67
2023-01-25T06:41:43.848Z,38.85
2023-01-25T06:42:15.318Z,38.60
2023-01-25T06:42:46.805Z,40.53
2023-01-25T06:43:18.300Z,40.97
2023-01-25T06:43:53.878Z,43.45
2023-01-25T06:44:25.465Z,37.45
2023-01-25T06:44:56.966Z,38.50
2023-01-25T06:45:28.513Z,40.60
2023-01-25T06:46:01.658Z,38.60
2023-01-25T06:46:33.740Z,41.83
2023-01-25T06:47:05.298Z,40.38
2023-01-25T06:47:36.837Z,46.28
2023-01-25T06:48:08.405Z,39.83
2023-01-25T06:48:40.419Z,41.47
2023-01-25T06:49:11.924Z,41.83
2023-01-25T06:49:43.632Z,39.95
2023-01-25T06:50:15.532Z,39.97
2023-01-25T06:50:54.061Z,41.28
2023-01-25T06:51:25.541Z,38.47
2023-01-25T06:51:57.106Z,38.83
2023-01-25T06:52:28.723Z,39.75
2023-01-25T06:53:00.187Z,41.17
2023-01-25T06:53:34.911Z,40.45
2023-01-25T06:54:06.556Z,38.90
2023-01-25T06:54:41.449Z,41.03
2023-01-25T06:55:14.055Z,38.25
2023-01-25T06:55:45.531Z,39.20
2023-01-25T06:56:21.849Z,39.00
2023-01-25T06:56:53.424Z,38.40
2023-01-25T06:57:24.948Z,38.60
2023-01-25T06:58:00.599Z,39.72
2023-01-25T06:58:32.660Z,41.65
2023-01-25T06:59:04.218Z,41.10
2023-01-25T06:59:36.117Z,40.00
2023-01-25T07:00:08.502Z,41.95
2023-01-25T07:00:40.413Z,40.95
2023-01-25T07:01:13.322Z,41.37
2023-01-25T07:01:44.970Z,38.88
2023-01-25T07:02:16.516Z,42.60
2023-01-25T07:02:48.146Z,42.97
2023-01-25T07:03:19.616Z,40.08
2023-01-25T07:03:52.946Z,39.63
2023-01-25T07:04:24.517Z,41.97
2023-01-25T07:04:56.170Z,40.33
2023-01-25T07:05:27.690Z,40.38
2023-01-25T07:06:05.090Z,40.47
2023-01-25T07:06:36.684Z,39.17
2023-01-25T07:07:09.322Z,41.72
2023-01-25T07:07:44.935Z,38.55
2023-01-25T07:08:36.283Z,38.88
2023-01-25T07:09:10.558Z,35.55
2023-01-25T07:09:42.070Z,38.55
2023-01-25T07:10:13.741Z,44.30
2023-01-25T07:10:53.484Z,38.88
2023-01-25T07:11:24.967Z,37.38
2023-01-25T07:11:56.564Z,38.33